createdAt,value
2019-04-11T18:08:15.436Z,51.86
2019-04-11T18:10:44.068Z,50.81
2019-04-11T18:13:12.696Z,51.68
2019-04-11T18:15:41.363Z,51.60
2019-04-11T18:18:09.917Z,51.11
2019-04-11T18:20:38.534Z,50.74
2019-04-11T18:23:07.262Z,50.81
2019-04-11T18:25:35.831Z,52.62
2019-04-11T18:28:04.460Z,52.15
2019-04-11T18:30:33.115Z,52.60
2019-04-11T18:33:01.743Z,52.37
2019-04-11T18:35:31.951Z,52.90
2019-04-11T18:38:02.134Z,52.42
2019-04-11T18:40:31.162Z,51.62
2019-04-11T18:42:59.789Z,51.34
2019-04-11T18:45:28.514Z,51.04
2019-04-11T18:47:57.141Z,50.07
2019-04-11T18:50:28.726Z,50.23
2019-04-11T18:52:59.253Z,49.84
2019-04-11T18:55:27.284Z,50.85
2019-04-11T18:57:56.060Z,50.84
2019-04-11T19:00:25.449Z,51.81
2019-04-11T19:02:54.161Z,51.19
2019-04-11T19:05:28.565Z,51.94
2019-04-11T19:07:53.455Z,51.85
2019-04-11T19:10:22.075Z,51.97
2019-04-11T19:12:50.818Z,52.18
2019-04-11T19:15:19.528Z,52.66
2019-04-11T19:17:48.155Z,52.41
2019-04-11T19:20:19.158Z,51.74
2019-04-11T19:22:47.329Z,50.79
2019-04-11T19:25:15.984Z,51.28
2019-04-11T19:27:44.662Z,50.36
2019-04-11T19:30:13.597Z,50.75
2019-04-11T19:32:42.233Z,50.39
2019-04-11T19:35:10.893Z,49.93
2019-04-11T19:37:41.814Z,48.48
2019-04-11T19:40:10.266Z,49.91
2019-04-11T19:42:38.940Z,48.25
2019-04-11T19:45:08.065Z,49.41
2019-04-11T19:47:36.694Z,48.89
2019-04-11T19:50:06.759Z,48.00
2019-04-11T19:52:45.256Z,48.31
2019-04-11T19:55:17.093Z,48.84
2019-04-11T19:57:45.726Z,49.80
2019-04-11T20:00:14.714Z,48.84
2019-04-11T20:02:43.382Z,47.85
2019-04-11T20:05:12.342Z,48.32
2019-04-11T20:07:41.111Z,49.74
2019-04-11T20:10:09.770Z,49.25
2019-04-11T20:12:40.484Z,47.93
2019-04-11T20:15:09.122Z,49.09
2019-04-11T20:17:44.023Z,49.41
2019-04-11T20:20:08.646Z,48.01
2019-04-11T20:22:39.755Z,48.52
2019-04-11T20:25:08.076Z,47.53
2019-04-11T20:27:36.671Z,48.14
2019-04-11T20:30:06.893Z,48.70
2019-04-11T20:32:35.579Z,48.32
2019-04-11T20:35:09.407Z,48.38
2019-04-11T20:37:39.401Z,47.71
2019-04-11T20:40:06.707Z,47.39
2019-04-11T20:42:35.353Z,47.21
2019-04-11T20:45:05.570Z,46.71
2019-04-11T20:47:34.237Z,47.60
2019-04-11T20:50:07.222Z,49.87
2019-04-11T20:52:33.304Z,50.05
2019-04-11T20:55:01.933Z,48.87
2019-04-11T20:57:30.699Z,48.94
2019-04-11T21:02:37.118Z,48.42
2019-04-11T21:05:06.318Z,51.63
2019-04-11T21:07:34.941Z,55.93
2019-04-11T21:10:04.808Z,55.28
2019-04-11T21:12:37.011Z,52.40
2019-04-11T21:15:05.047Z,51.11
2019-04-11T21:17:33.736Z,51.09
2019-04-11T21:20:02.358Z,50.11
2019-04-11T21:22:30.996Z,50.02
2019-04-11T21:25:00.123Z,49.88
2019-04-11T21:27:29.474Z,49.19
2019-04-11T21:29:59.984Z,49.92
2019-04-11T21:32:29.062Z,49.74
2019-04-11T21:35:01.652Z,49.57
2019-04-11T21:37:30.170Z,49.89
2019-04-11T21:39:59.372Z,49.87
2019-04-11T21:42:27.984Z,50.46
2019-04-11T21:44:56.687Z,50.54
2019-04-11T21:47:25.351Z,50.23
2019-04-11T21:49:53.978Z,50.97
2019-04-11T21:52:22.608Z,50.60
2019-04-11T21:54:51.268Z,50.90
2019-04-11T21:57:19.904Z,52.54
2019-04-11T21:59:51.285Z,51.40
2019-04-11T22:02:19.296Z,52.86
2019-04-11T22:04:47.938Z,51.97
2019-04-11T22:07:16.559Z,53.46
2019-04-11T22:09:45.211Z,52.59
2019-04-11T22:12:13.833Z,52.41
2019-04-11T22:14:42.600Z,52.77
2019-04-11T22:17:15.072Z,52.96
2019-04-11T22:19:45.345Z,52.02
2019-04-11T22:22:11.991Z,51.52
2019-04-11T22:24:40.658Z,51.21
2019-04-11T22:27:09.282Z,53.06
2019-04-11T22:29:37.916Z,52.22
2019-04-11T22:32:06.586Z,52.02
2019-04-11T22:34:42.778Z,52.96
2019-04-11T22:37:11.407Z,52.37
2019-04-11T22:39:40.068Z,52.30
2019-04-11T22:42:08.762Z,52.03
2019-04-11T22:44:38.080Z,52.22
2019-04-11T22:47:08.006Z,51.83
2019-04-11T22:49:39.338Z,51.81
2019-04-11T22:52:07.564Z,51.92
2019-04-11T22:54:36.225Z,52.00
2019-04-11T22:57:04.839Z,52.29
2019-04-11T22:59:33.402Z,52.09
2019-04-11T23:02:03.688Z,53.64
2019-04-11T23:04:32.320Z,52.82
2019-04-11T23:07:01.037Z,52.31
2019-04-11T23:09:29.705Z,53.39
2019-04-11T23:11:58.331Z,53.05
2019-04-11T23:14:26.952Z,53.45
2019-04-11T23:16:55.883Z,52.62
2019-04-11T23:19:24.505Z,53.65
2019-04-11T23:21:53.127Z,54.04
2019-04-11T23:24:21.782Z,53.00
2019-04-11T23:26:50.472Z,53.36
2019-04-11T23:29:19.091Z,54.38
2019-04-11T23:31:50.621Z,53.59
2019-04-11T23:34:19.774Z,52.58
2019-04-11T23:36:51.075Z,52.50
2019-04-11T23:39:22.714Z,52.48
2019-04-11T23:41:49.838Z,53.63
2019-04-11T23:44:20.998Z,53.69
2019-04-11T23:46:51.817Z,53.38
2019-04-11T23:49:19.943Z,53.53
2019-04-11T23:51:48.564Z,53.22
2019-04-11T23:54:22.871Z,52.90
2019-04-11T23:56:47.572Z,54.35
2019-04-11T23:59:16.203Z,54.33
